createdAt,value
2023-08-17T00:02:28.834Z,100641.59
2023-08-17T00:05:30.440Z,100645.13
2023-08-17T00:08:31.958Z,100639.78
2023-08-17T00:11:33.581Z,100640.41
2023-08-17T00:14:35.316Z,100649.47
2023-08-17T00:17:36.919Z,100649.28
2023-08-17T00:20:38.476Z,100656.97
2023-08-17T00:23:40.048Z,100657.34
2023-08-17T00:26:41.687Z,100656.13
2023-08-17T00:29:43.278Z,100665.19
2023-08-17T00:32:44.943Z,100666.66
2023-08-17T00:35:46.616Z,100664.16
2023-08-17T00:38:48.214Z,100666.84
2023-08-17T00:41:49.808Z,100669.53
2023-08-17T00:44:51.381Z,100666.84
2023-08-17T00:47:53.001Z,100672.84
2023-08-17T00:50:54.766Z,100672.84
2023-08-17T00:53:56.472Z,100674.53
2023-08-17T00:56:58.051Z,100673.72
2023-08-17T01:00:05.490Z,100680.09
2023-08-17T01:03:07.999Z,100677.56
2023-08-17T01:06:09.614Z,100671.22
2023-08-17T01:09:11.225Z,100674.72
2023-08-17T01:12:12.822Z,100676.56
2023-08-17T01:15:14.394Z,100673.25
2023-08-17T01:18:15.928Z,100669.53
2023-08-17T01:21:17.631Z,100673.25
2023-08-17T01:24:19.176Z,100661.69
2023-08-17T01:27:20.747Z,100666.84
2023-08-17T01:30:22.459Z,100659.00
2023-08-17T01:33:24.088Z,100656.13
2023-08-17T01:36:25.694Z,100657.63
2023-08-17T01:39:27.270Z,100644.38
2023-08-17T01:42:28.856Z,100654.09
2023-08-17T01:45:30.453Z,100642.34
2023-08-17T01:48:32.039Z,100636.16
2023-08-17T01:51:33.655Z,100638.00
2023-08-17T01:54:35.483Z,100638.38
2023-08-17T01:57:37.080Z,100631.34
2023-08-17T02:00:38.732Z,100634.03
2023-08-17T02:03:40.394Z,100630.34
2023-08-17T02:06:42.034Z,100631.97
2023-08-17T02:09:43.594Z,100627.47
2023-08-17T02:12:45.199Z,100626.63
2023-08-17T02:15:47.318Z,100626.63
2023-08-17T02:18:48.917Z,100623.28
2023-08-17T02:21:50.569Z,100626.63
2023-08-17T02:24:52.133Z,100622.47
2023-08-17T02:27:53.740Z,100618.97
2023-08-17T02:30:55.321Z,100617.94
2023-08-17T02:33:57.034Z,100611.91
2023-08-17T02:36:58.662Z,100618.78
2023-08-17T02:40:00.442Z,100621.25
2023-08-17T02:43:02.028Z,100615.25
2023-08-17T02:46:03.623Z,100619.78
2023-08-17T02:49:05.178Z,100608.41
2023-08-17T02:52:06.854Z,100610.06
2023-08-17T02:55:08.431Z,100609.25
2023-08-17T02:58:10.125Z,100614.59
2023-08-17T03:01:11.765Z,100614.59
2023-08-17T03:04:13.436Z,100606.38
2023-08-17T03:07:15.111Z,100608.25
2023-08-17T03:10:16.694Z,100604.69
2023-08-17T03:13:18.559Z,100599.56
2023-08-17T03:16:20.185Z,100596.66
2023-08-17T03:19:21.812Z,100598.50
2023-08-17T03:22:23.446Z,100600.38
2023-08-17T03:25:25.049Z,100603.88
2023-08-17T03:28:26.775Z,100603.06
2023-08-17T03:31:28.388Z,100601.59
2023-08-17T03:34:30.046Z,100602.59
2023-08-17T03:37:31.618Z,100598.91
2023-08-17T03:40:33.200Z,100604.28
2023-08-17T03:43:34.832Z,100600.09
2023-08-17T03:46:36.404Z,100612.50
2023-08-17T03:49:38.189Z,100618.03
2023-08-17T03:52:39.809Z,100615.34
2023-08-17T03:55:41.420Z,100613.31
2023-08-17T03:58:42.955Z,100622.41
2023-08-17T04:01:44.597Z,100620.72
2023-08-17T04:04:46.259Z,100621.53
2023-08-17T04:07:47.940Z,100622.41
2023-08-17T04:10:49.505Z,100625.25
2023-08-17T04:13:51.156Z,100621.72
2023-08-17T04:16:52.750Z,100619.72
2023-08-17T04:19:54.472Z,100625.25
2023-08-17T04:22:56.129Z,100627.94
2023-08-17T04:25:57.735Z,100621.72
2023-08-17T04:28:59.324Z,100619.03
2023-08-17T04:32:00.996Z,100621.53
2023-08-17T04:35:02.575Z,100629.75
2023-08-17T04:38:04.182Z,100637.00
2023-08-17T04:41:05.769Z,100633.31
2023-08-17T04:44:07.437Z,100637.63
2023-08-17T04:47:09.019Z,100638.84
2023-08-17T04:50:10.636Z,100641.53
2023-08-17T04:53:12.198Z,100649.56
2023-08-17T04:56:13.885Z,100646.25
2023-08-17T04:59:15.529Z,100646.06
2023-08-17T05:02:17.318Z,100638.84
2023-08-17T05:05:18.970Z,100635.13
2023-08-17T05:08:20.572Z,100636.16
2023-08-17T05:11:22.200Z,100639.50
2023-08-17T05:14:23.811Z,100638.50
2023-08-17T05:17:25.623Z,100643.84
2023-08-17T05:20:27.457Z,100653.72
2023-08-17T05:23:29.004Z,100652.91
2023-08-17T05:26:30.668Z,100662.41
2023-08-17T05:29:32.252Z,100655.41
2023-08-17T05:32:33.857Z,100658.25
2023-08-17T05:35:35.505Z,100652.91
2023-08-17T05:38:37.094Z,100657.25
2023-08-17T05:41:38.745Z,100656.22
2023-08-17T05:44:40.332Z,100663.44
2023-08-17T05:47:41.958Z,100659.72
2023-08-17T05:50:43.622Z,100660.38
2023-08-17T05:53:45.223Z,100656.88
2023-08-17T05:56:46.824Z,100660.19
2023-08-17T05:59:48.414Z,100658.34
2023-08-17T06:02:50.091Z,100660.19
2023-08-17T06:05:51.714Z,100659.19
2023-08-17T06:08:53.293Z,100669.06
2023-08-17T06:11:54.923Z,100663.69
2023-08-17T06:14:56.501Z,100669.06
2023-08-17T06:17:58.171Z,100676.28
2023-08-17T06:21:04.043Z,100675.47
2023-08-17T06:24:05.699Z,100688.31
2023-08-17T06:27:07.280Z,100683.78
2023-08-17T06:30:08.881Z,100675.94
2023-08-17T06:33:10.551Z,100676.09
2023-08-17T06:36:12.262Z,100675.09
2023-08-17T06:39:13.831Z,100676.09
2023-08-17T06:42:15.565Z,100683.31
2023-08-17T06:45:17.254Z,100682.75
2023-08-17T06:48:18.884Z,100686.66
2023-08-17T06:51:20.464Z,100683.16
2023-08-17T06:54:22.052Z,100685.63
2023-08-17T06:57:23.807Z,100691.19
2023-08-17T07:00:25.573Z,100689.97
2023-08-17T07:03:27.287Z,100689.59
2023-08-17T07:06:29.058Z,100684.44
2023-08-17T07:09:30.736Z,100686.91
2023-08-17T07:12:32.343Z,100693.31
2023-08-17T07:15:33.946Z,100700.78
2023-08-17T07:18:35.650Z,100695.44
2023-08-17T07:21:37.359Z,100704.34
2023-08-17T07:24:38.978Z,100700.16
2023-08-17T07:27:40.535Z,100698.28
2023-08-17T07:30:42.172Z,100706.63
2023-08-17T07:33:43.832Z,100700.63
2023-08-17T07:36:45.467Z,100698.13
2023-08-17T07:39:47.022Z,100702.47
2023-08-17T07:42:48.685Z,100707.00
2023-08-17T07:45:50.396Z,100711.34
2023-08-17T07:48:52.092Z,100706.81
2023-08-17T07:51:53.705Z,100705.63
2023-08-17T07:54:55.288Z,100698.56
2023-08-17T07:57:56.896Z,100694.25
2023-08-17T08:00:58.464Z,100690.34
2023-08-17T08:04:00.297Z,100689.53
2023-08-17T08:07:01.924Z,100692.38
2023-08-17T08:10:03.581Z,100685.16
2023-08-17T08:13:05.167Z,100687.66
2023-08-17T08:16:06.844Z,100684.81
2023-08-17T08:19:08.484Z,100674.25
2023-08-17T08:22:10.126Z,100685.00
2023-08-17T08:25:11.691Z,100682.78
2023-08-17T08:28:13.377Z,100685.91
2023-08-17T08:31:15.043Z,100684.88
2023-08-17T08:34:16.649Z,100684.41
2023-08-17T08:37:18.210Z,100677.88
2023-08-17T08:40:19.813Z,100680.97
2023-08-17T08:43:21.455Z,100680.97
2023-08-17T08:46:23.046Z,100684.59
2023-08-17T08:49:24.684Z,100685.91
2023-08-17T08:52:26.285Z,100676.25
2023-08-17T08:55:27.858Z,100678.59
2023-08-17T08:58:29.460Z,100685.00
2023-08-17T09:01:31.123Z,100676.94
2023-08-17T09:04:32.734Z,100672.28
2023-08-17T09:07:34.392Z,100672.09
2023-08-17T09:10:38.915Z,100664.25
2023-08-17T09:13:40.960Z,100667.84
2023-08-17T09:16:42.604Z,100670.75
2023-08-17T09:19:44.230Z,100670.63
2023-08-17T09:22:45.791Z,100668.06
2023-08-17T09:25:47.542Z,100667.31
2023-08-17T09:28:49.073Z,100662.06
2023-08-17T09:31:50.743Z,100662.13
2023-08-17T09:34:52.361Z,100663.25
2023-08-17T09:37:54.004Z,100659.34
2023-08-17T09:40:55.748Z,100652.41
2023-08-17T09:43:57.367Z,100661.72
2023-08-17T09:46:58.996Z,100660.31
2023-08-17T09:50:00.658Z,100654.16
2023-08-17T09:53:02.203Z,100661.47
2023-08-17T09:56:03.805Z,100658.59
2023-08-17T09:59:05.430Z,100657.00
2023-08-17T10:02:06.984Z,100650.00
2023-08-17T10:05:08.703Z,100643.41
2023-08-17T10:08:10.451Z,100652.69
2023-08-17T10:11:12.096Z,100649.44
2023-08-17T10:14:13.706Z,100657.13
2023-08-17T10:17:15.263Z,100645.56
2023-08-17T10:20:16.919Z,100663.59
2023-08-17T10:23:18.483Z,100663.88
2023-08-17T10:26:20.081Z,100659.69
2023-08-17T10:29:21.703Z,100667.38
2023-08-17T10:32:23.292Z,100671.91
2023-08-17T10:35:27.778Z,100668.94
2023-08-17T10:38:29.420Z,100674.03
2023-08-17T10:41:31.028Z,100672.47
2023-08-17T10:44:32.587Z,100671.34
2023-08-17T10:47:36.427Z,100664.06
2023-08-17T10:50:42.935Z,100665.50
2023-08-17T10:53:45.158Z,100663.34
2023-08-17T10:56:47.176Z,100665.84
2023-08-17T10:59:48.714Z,100650.97
2023-08-17T11:02:50.437Z,100659.78
2023-08-17T11:05:52.051Z,100653.31
2023-08-17T11:08:53.623Z,100650.50
2023-08-17T11:11:55.265Z,100640.50
2023-08-17T11:15:00.012Z,100645.16
2023-08-17T11:18:02.090Z,100645.78
2023-08-17T11:21:03.683Z,100643.56
2023-08-17T11:24:05.383Z,100650.56
2023-08-17T11:27:06.947Z,100659.66
2023-08-17T11:30:08.564Z,100662.19
2023-08-17T11:33:10.307Z,100662.72
2023-08-17T11:36:11.875Z,100656.34
2023-08-17T11:39:13.468Z,100666.16
2023-08-17T11:42:20.179Z,100659.84
2023-08-17T11:45:27.706Z,100667.44
2023-08-17T11:48:29.759Z,100662.53
2023-08-17T11:51:31.517Z,100659.31
2023-08-17T11:54:33.081Z,100654.41
2023-08-17T11:57:34.739Z,100650.88
2023-08-17T12:00:36.428Z,100650.25
2023-08-17T12:03:38.115Z,100649.53
2023-08-17T12:06:39.781Z,100642.19
2023-08-17T12:09:41.427Z,100648.59
2023-08-17T12:12:43.078Z,100638.31
2023-08-17T12:15:44.841Z,100647.66
2023-08-17T12:18:46.516Z,100646.16
2023-08-17T12:21:48.243Z,100632.09
2023-08-17T12:24:49.875Z,100627.03
2023-08-17T12:27:51.511Z,100627.31
2023-08-17T12:30:53.125Z,100624.16
2023-08-17T12:33:54.819Z,100625.69
2023-08-17T12:36:56.449Z,100625.84
2023-08-17T12:39:58.061Z,100624.16
2023-08-17T12:42:59.618Z,100609.56
2023-08-17T12:46:01.245Z,100609.47
2023-08-17T12:49:02.797Z,100599.00
2023-08-17T12:52:04.364Z,100597.97
2023-08-17T12:55:05.961Z,100595.09
2023-08-17T12:58:07.580Z,100594.00
2023-08-17T13:01:09.279Z,100599.66
2023-08-17T13:04:10.922Z,100605.66
2023-08-17T13:07:12.559Z,100601.94
2023-08-17T13:10:14.219Z,100602.16
2023-08-17T13:13:15.826Z,100591.19
2023-08-17T13:16:17.430Z,100593.88
2023-08-17T13:19:19.053Z,100599.53
2023-08-17T13:22:20.660Z,100593.78
2023-08-17T13:25:22.259Z,100590.06
2023-08-17T13:28:23.815Z,100597.97
2023-08-17T13:31:25.469Z,100591.09
2023-08-17T13:34:27.123Z,100583.94
2023-08-17T13:37:28.732Z,100578.66
2023-08-17T13:40:30.450Z,100582.56
2023-08-17T13:43:32.045Z,100571.13
2023-08-17T13:46:33.717Z,100570.03
2023-08-17T13:49:35.479Z,100556.84
2023-08-17T13:52:37.085Z,100555.25
2023-08-17T13:55:38.757Z,100552.03
2023-08-17T13:58:40.317Z,100549.63
2023-08-17T14:01:41.932Z,100536.56
2023-08-17T14:04:43.578Z,100547.88
2023-08-17T14:07:45.157Z,100535.47
2023-08-17T14:10:46.787Z,100541.28
2023-08-17T14:13:48.440Z,100532.88
2023-08-17T14:16:50.012Z,100538.25
2023-08-17T14:19:51.615Z,100531.00
2023-08-17T14:22:53.385Z,100517.72
2023-08-17T14:25:55.009Z,100521.50
2023-08-17T14:28:56.617Z,100510.19
2023-08-17T14:31:58.306Z,100518.22
2023-08-17T14:34:59.921Z,100508.72
2023-08-17T14:38:01.565Z,100496.13
2023-08-17T14:41:03.246Z,100501.03
2023-08-17T14:44:04.881Z,100499.84
2023-08-17T14:47:06.462Z,100500.22
2023-08-17T14:50:08.063Z,100495.31
2023-08-17T14:53:09.703Z,100491.78
2023-08-17T14:56:11.294Z,100488.66
2023-08-17T14:59:12.989Z,100484.75
2023-08-17T15:02:14.606Z,100481.25
2023-08-17T15:05:16.307Z,100475.69
2023-08-17T15:08:17.837Z,100481.44
2023-08-17T15:11:19.413Z,100476.50
2023-08-17T15:14:21.014Z,100470.38
2023-08-17T15:17:22.654Z,100457.28
2023-08-17T15:20:24.255Z,100457.09
2023-08-17T15:23:25.856Z,100456.03
2023-08-17T15:26:27.497Z,100447.19
2023-08-17T15:29:29.180Z,100450.03
2023-08-17T15:32:30.882Z,100438.31
2023-08-17T15:35:32.532Z,100438.13
2023-08-17T15:38:34.087Z,100431.53
2023-08-17T15:41:35.732Z,100444.97
2023-08-17T15:44:37.381Z,100450.13
2023-08-17T15:47:39.040Z,100436.88
2023-08-17T15:50:40.717Z,100445.94
2023-08-17T15:53:42.279Z,100448.84
2023-08-17T15:56:43.875Z,100453.38
2023-08-17T15:59:45.580Z,100454.22
2023-08-17T16:02:47.252Z,100441.44
2023-08-17T16:05:49.011Z,100445.94
2023-08-17T16:08:50.582Z,100442.44
2023-08-17T16:11:52.140Z,100443.72
2023-08-17T16:14:53.744Z,100443.06
2023-08-17T16:18:00.758Z,100446.81
2023-08-17T16:21:02.725Z,100445.13
2023-08-17T16:24:04.517Z,100444.75
2023-08-17T16:27:06.125Z,100438.94
2023-08-17T16:30:07.813Z,100443.06
2023-08-17T16:33:15.681Z,100446.81
2023-08-17T16:36:17.760Z,100445.56
2023-08-17T16:39:19.371Z,100449.94
2023-08-17T16:42:21.015Z,100454.25
2023-08-17T16:45:22.578Z,100451.00
2023-08-17T16:48:25.249Z,100455.94
2023-08-17T16:51:26.976Z,100461.75
2023-08-17T16:54:28.602Z,100459.69
2023-08-17T16:57:30.415Z,100463.78
2023-08-17T17:00:32.047Z,100464.81
2023-08-17T17:03:33.696Z,100465.81
2023-08-17T17:06:35.321Z,100469.53
2023-08-17T17:09:36.880Z,100460.84
2023-08-17T17:12:38.475Z,100466.03
2023-08-17T17:15:40.073Z,100474.91
2023-08-17T17:18:41.736Z,100461.50
2023-08-17T17:21:43.303Z,100473.06
2023-08-17T17:24:44.885Z,100476.78
2023-08-17T17:27:46.520Z,100479.88
2023-08-17T17:30:48.132Z,100480.72
2023-08-17T17:33:49.827Z,100480.91
2023-08-17T17:36:51.437Z,100477.41
2023-08-17T17:39:53.058Z,100474.91
2023-08-17T17:42:54.677Z,100475.91
2023-08-17T17:45:56.302Z,100478.03
2023-08-17T17:48:57.951Z,100471.81
2023-08-17T17:51:59.630Z,100467.97
2023-08-17T17:55:01.314Z,100466.09
2023-08-17T17:58:02.950Z,100469.63
2023-08-17T18:01:04.643Z,100474.34
2023-08-17T18:04:06.277Z,100481.41
2023-08-17T18:07:07.867Z,100485.91
2023-08-17T18:10:09.597Z,100487.09
2023-08-17T18:13:11.167Z,100490.81
2023-08-17T18:16:12.792Z,100502.38
2023-08-17T18:19:15.271Z,100508.75
2023-08-17T18:22:16.929Z,100509.81
2023-08-17T18:25:18.634Z,100503.63
2023-08-17T18:28:20.225Z,100500.06
2023-08-17T18:31:21.969Z,100507.94
2023-08-17T18:34:23.633Z,100507.94
2023-08-17T18:37:25.281Z,100496.38
2023-08-17T18:40:26.992Z,100497.22
2023-08-17T18:43:28.584Z,100500.72
2023-08-17T18:46:30.232Z,100507.56
2023-08-17T18:49:31.846Z,100508.44
2023-08-17T18:52:33.496Z,100511.09
2023-08-17T18:55:35.150Z,100495.63
2023-08-17T18:58:36.758Z,100510.69
2023-08-17T19:01:38.363Z,100502.66
2023-08-17T19:04:40.032Z,100501.00
2023-08-17T19:07:41.662Z,100512.56
2023-08-17T19:10:43.228Z,100509.69
2023-08-17T19:13:44.834Z,100521.06
2023-08-17T19:16:46.595Z,100518.56
2023-08-17T19:19:48.258Z,100523.13
2023-08-17T19:22:49.844Z,100522.28
2023-08-17T19:25:51.547Z,100525.81
2023-08-17T19:28:53.162Z,100519.59
2023-08-17T19:31:54.833Z,100528.66
2023-08-17T19:34:56.438Z,100535.09
2023-08-17T19:37:58.113Z,100527.84
2023-08-17T19:40:59.671Z,100536.91
2023-08-17T19:44:01.294Z,100541.47
2023-08-17T19:47:03.032Z,100543.13
2023-08-17T19:50:04.694Z,100546.81
2023-08-17T19:53:06.285Z,100555.03
2023-08-17T19:56:08.022Z,100544.28
2023-08-17T19:59:09.645Z,100555.03
2023-08-17T20:02:11.218Z,100554.22
2023-08-17T20:05:12.855Z,100555.03
2023-08-17T20:08:14.483Z,100553.19
2023-08-17T20:11:16.103Z,100548.84
2023-08-17T20:14:18.518Z,100546.00
2023-08-17T20:17:21.594Z,100557.56
2023-08-17T20:20:23.222Z,100553.03
2023-08-17T20:23:24.824Z,100550.34
2023-08-17T20:26:26.541Z,100543.31
2023-08-17T20:29:28.104Z,100546.00
2023-08-17T20:32:29.742Z,100538.78
2023-08-17T20:35:31.356Z,100536.09
2023-08-17T20:38:32.964Z,100545.16
2023-08-17T20:41:34.713Z,100546.97
2023-08-17T20:44:36.416Z,100559.59
2023-08-17T20:47:38.102Z,100553.38
2023-08-17T20:50:39.722Z,100549.66
2023-08-17T20:53:44.183Z,100544.50
2023-08-17T20:56:45.829Z,100548.03
2023-08-17T20:59:47.413Z,100545.53
2023-08-17T21:02:49.138Z,100551.72
2023-08-17T21:05:50.874Z,100555.44
2023-08-17T21:08:52.808Z,100566.16
2023-08-17T21:11:54.461Z,100562.66
2023-08-17T21:14:56.043Z,100563.50
2023-08-17T21:17:57.734Z,100562.66
2023-08-17T21:20:59.416Z,100552.75
2023-08-17T21:24:01.040Z,100552.75
2023-08-17T21:27:02.658Z,100554.63
2023-08-17T21:30:04.273Z,100552.13
2023-08-17T21:33:05.961Z,100542.19
2023-08-17T21:36:07.605Z,100550.44
2023-08-17T21:39:09.182Z,100546.09
2023-08-17T21:42:10.781Z,100556.22
2023-08-17T21:45:12.377Z,100556.41
2023-08-17T21:48:13.978Z,100542.16
2023-08-17T21:51:15.738Z,100545.22
2023-08-17T21:54:17.279Z,100555.94
2023-08-17T21:57:18.925Z,100551.56
2023-08-17T22:00:20.536Z,100533.00
2023-08-17T22:03:22.246Z,100543.94
2023-08-17T22:06:23.865Z,100557.16
2023-08-17T22:09:25.491Z,100550.31
2023-08-17T22:12:27.077Z,100552.97
2023-08-17T22:15:28.637Z,100544.13
2023-08-17T22:18:30.229Z,100554.41
2023-08-17T22:21:31.821Z,100550.88
2023-08-17T22:24:41.666Z,100548.38
2023-08-17T22:27:51.258Z,100546.09
2023-08-17T22:30:52.927Z,100548.78
2023-08-17T22:33:54.635Z,100541.56
2023-08-17T22:36:56.267Z,100547.94
2023-08-17T22:39:57.884Z,100542.78
2023-08-17T22:42:59.468Z,100533.88
2023-08-17T22:46:01.114Z,100538.25
2023-08-17T22:49:02.733Z,100525.00
2023-08-17T22:52:04.328Z,100530.38
2023-08-17T22:55:05.922Z,100532.41
2023-08-17T22:58:07.505Z,100525.38
2023-08-17T23:01:09.157Z,100532.41
2023-08-17T23:04:10.758Z,100528.44
2023-08-17T23:07:12.355Z,100525.78
2023-08-17T23:10:14.005Z,100522.25
2023-08-17T23:13:15.667Z,100517.25
2023-08-17T23:16:17.298Z,100523.09
2023-08-17T23:19:18.994Z,100521.41
2023-08-17T23:22:20.614Z,100510.03
2023-08-17T23:25:22.184Z,100509.59
2023-08-17T23:28:23.758Z,100506.91
2023-08-17T23:31:25.437Z,100506.72
2023-08-17T23:34:27.046Z,100511.44
2023-08-17T23:37:28.827Z,100512.47
2023-08-17T23:40:30.720Z,100511.84
2023-08-17T23:43:32.327Z,100517.00
2023-08-17T23:46:33.902Z,100509.81
2023-08-17T23:49:35.533Z,100509.16
2023-08-17T23:52:37.110Z,100507.50
2023-08-17T23:55:38.654Z,100510.81
2023-08-17T23:58:40.240Z,100508.75
